Terminal Aerodrome Forecast
Issued by NWS

Home | Current Version | Previous Version | Text Only | Print | Product List | Glossary Off
Versions: 1 2 3 4 5 6 7 8 9 10 11 12 13 14

005
FTUS43 KMPX 282339
TAFRWF
TAF
KRWF 282339Z 2900/2924 04007KT P6SM BKN040
     FM290600 00000KT P6SM SCT040
     FM291600 VRB03KT P6SM SCT060
     FM291700 06004KT P6SM SCT100=

USA.gov is the U.S. government's official web portal to all federal, state and local government web resources and services.